ADDS METAR Data INFO
IDs: Format: Raw Decoded Include TAF

Data at: 1009 UTC 22 May 2018

KAST 220955Z AUTO 13003KT 10SM CLR 08/08 A2997 RMK AO2 SLP150 T00830078
KAST 220855Z AUTO 00000KT 10SM CLR 09/08 A2998 RMK AO2 SLP150 T00890083 58007
KAST 220755Z AUTO 18003KT 10SM CLR 09/08 A2998 RMK AO2 SLP152 T00940083 401780094
KAST 220655Z AUTO 00000KT 10SM CLR 10/09 A2999 RMK AO2 SLP156 T01000089
KAST 220555Z AUTO 00000KT 10SM CLR 11/10 A3000 RMK AO2 SLP157 T01110100 10167 20111 55000
KAST 220455Z AUTO 32005KT 10SM CLR 13/11 A2999 RMK AO2 SLP157 T01280106
KAST 220355Z AUTO 32011KT 10SM CLR 13/11 A2999 RMK AO2 SLP155 T01330111
KAST 220255Z AUTO 31014KT 10SM CLR 14/11 A3000 RMK AO2 SLP157 T01440106 56009
KAST 220155Z AUTO 31013G19KT 10SM CLR 16/10 A3000 RMK AO2 SLP158 T01560100
KAST 220055Z AUTO 31012KT 10SM CLR 17/11 A3001 RMK AO2 SLP161 T01670106
KAST 212355Z AUTO 31013G20KT 10SM CLR 17/11 A3002 RMK AO2 SLP167 T01670106 10178 20144 58010
KAST 212255Z AUTO 31016KT 10SM CLR 17/11 A3004 RMK AO2 SLP170 T01670106
KAST 212155Z AUTO 32014KT 10SM CLR 18/11 A3004 RMK AO2 SLP173 T01780111
KAST 212055Z AUTO 34010KT 10SM CLR 18/11 A3005 RMK AO2 SLP176 T01780111 58012
KAST 211955Z AUTO 35006KT 6SM HZ CLR 16/10 A3006 RMK AO2 SLP180 T01610100
KAST 211938Z AUTO 34005KT 4SM HZ SCT029 16/11 A3007 RMK AO2 T01610106
KAST 211855Z AUTO 35006KT 4SM HZ OVC029 16/11 A3008 RMK AO2 SLP185 T01560106
KAST 211755Z AUTO 34005KT 4SM HZ OVC027 14/09 A3009 RMK AO2 SLP188 T01440094 10144 20106 51004
KAST 211655Z AUTO 34004KT 4SM HZ OVC025 13/09 A3009 RMK AO2 SLP188 T01330094
KAST 211555Z AUTO 33007KT 4SM HZ OVC023 13/09 A3009 RMK AO2 SLP187 T01280094
KAST 211455Z AUTO 00000KT 4SM HZ BKN019 OVC026 13/09 A3007 RMK AO2 SLP184 T01280089 53001
KAST 211355Z AUTO 34004KT 4SM HZ BKN021 OVC026 12/09 A3007 RMK AO2 SLP180 T01220089
KAST 211307Z AUTO 35005KT 5SM HZ BKN019 OVC030 12/09 A3007 RMK AO2 T01170089
KAST 211255Z AUTO 35005KT 6SM HZ SCT019 OVC031 12/09 A3006 RMK AO2 SLP180 T01170089
KAST 211155Z AUTO 00000KT 5SM BR FEW022 OVC033 11/09 A3007 RMK AO2 CIG 027 RWY 08 SLP182 T01110094 10122 20106 57003
KAST 211113Z AUTO 18003KT 5SM BR SCT022 OVC030 11/09 A3007 RMK AO2 T01060089
KAST 211102Z AUTO 14003KT 5SM BR OVC029 11/09 A3007 RMK AO2 CIG 023 RWY 08 T01110089
KAST 211055Z AUTO 00000KT 6SM BR SCT024 OVC030 11/09 A3008 RMK AO2 CIG 025 RWY 08 SLP184 T01110089
KAST 210955Z AUTO 36006KT 6SM HZ OVC033 12/08 A3008 RMK AO2 SLP184 T01220083
KAST 210942Z AUTO 01005KT 6SM HZ SCT028 OVC034 12/08 A3008 RMK AO2 T01220083
KAST 210935Z AUTO 01006KT 6SM HZ BKN028 OVC035 12/09 A3008 RMK AO2 T01220089
KAST 210910Z AUTO 36005KT 6SM HZ OVC033 12/08 A3008 RMK AO2 T01220083
KAST 210855Z AUTO 36006KT 6SM HZ BKN028 OVC033 12/08 A3008 RMK AO2 SLP185 T01220083 57002
KAST 210755Z AUTO 35006KT 6SM HZ OVC026 12/09 A3008 RMK AO2 SLP185 T01220089 401610106
KAST 210655Z AUTO 35008KT 6SM HZ BKN028 12/09 A3009 RMK AO2 SLP187 T01220089
KAST 210651Z AUTO 35009KT 6SM HZ BKN028 12/09 A3009 RMK AO2
KAST 210555Z AUTO 34008KT 6SM HZ FEW030 12/08 A3009 RMK AO2 SLP188 T01220083 10156 20122 50004
KAST 210533Z AUTO 33007KT 6SM HZ SCT029 12/09 A3009 RMK AO2 T01220089
KAST 210455Z AUTO 33008KT 6SM HZ OVC029 13/09 A3009 RMK AO2 SLP189 T01280089
KAST 210448Z AUTO 33009KT 6SM HZ OVC029 13/09 A3009 RMK AO2 T01280089
KAST 210411Z AUTO 33013KT 7SM FEW023 OVC030 13/09 A3008 RMK AO2 T01280089
KAST 210355Z AUTO 33009KT 6SM HZ SCT021 OVC029 13/09 A3008 RMK AO2 CIG 020 RWY 08 SLP184 T01280089
KAST 210255Z AUTO 32010KT 5SM HZ OVC028 13/09 A3008 RMK AO2 SLP184 T01330094 57001
KAST 210247Z AUTO 31010KT 5SM HZ OVC028 14/10 A3008 RMK AO2 T01390100
KAST 210155Z AUTO 32012KT 5SM HZ OVC032 14/09 A3008 RMK AO2 SLP184 T01390094
KAST 210055Z AUTO 33012KT 5SM HZ BKN035 16/10 A3008 RMK AO2 SLP185 T01560100
KAST 202355Z AUTO 32012KT 5SM HZ BKN039 15/10 A3008 RMK AO2 SLP185 T01500100 10161 20133 58002
KAST 202255Z AUTO 33012KT 6SM HZ FEW021 BKN038 14/10 A3009 RMK AO2 SLP188 T01440100